createdAt,value
2018-07-05T00:00:37.086Z,0.00
2018-07-05T00:01:37.033Z,0.00
2018-07-05T00:02:37.017Z,0.00
2018-07-05T00:03:37.003Z,0.00
2018-07-05T00:04:36.959Z,0.00
2018-07-05T00:05:36.950Z,0.00
2018-07-05T00:06:36.926Z,0.00
2018-07-05T00:07:36.892Z,0.00
2018-07-05T00:08:36.885Z,0.00
2018-07-05T00:09:36.858Z,0.00
2018-07-05T00:10:36.832Z,0.00
2018-07-05T00:11:36.810Z,0.00
2018-07-05T00:12:36.783Z,0.00
2018-07-05T00:13:36.764Z,0.00
2018-07-05T00:14:36.736Z,0.00
2018-07-05T00:15:36.720Z,0.00
2018-07-05T00:16:36.697Z,0.00
2018-07-05T00:17:36.675Z,0.00
2018-07-05T00:18:36.650Z,0.00
2018-07-05T00:19:36.620Z,0.00
2018-07-05T00:20:36.608Z,0.00
2018-07-05T00:21:36.588Z,0.00
2018-07-05T00:22:36.553Z,0.00
2018-07-05T00:23:36.535Z,0.00
2018-07-05T00:24:36.515Z,0.00
2018-07-05T00:25:36.489Z,0.00
2018-07-05T00:26:36.470Z,0.00
2018-07-05T00:27:36.445Z,0.00
2018-07-05T00:28:36.426Z,0.00
2018-07-05T00:29:36.406Z,0.00
2018-07-05T00:30:36.379Z,0.00
2018-07-05T00:31:36.358Z,0.00
2018-07-05T00:32:36.335Z,0.00
2018-07-05T00:33:36.310Z,0.00
2018-07-05T00:34:36.292Z,0.00
2018-07-05T00:35:36.267Z,0.00
2018-07-05T00:36:36.243Z,0.00
2018-07-05T00:37:36.217Z,0.00
2018-07-05T00:38:36.200Z,0.00
2018-07-05T00:39:36.167Z,0.00
2018-07-05T00:40:36.157Z,0.00
2018-07-05T00:41:36.130Z,0.00
2018-07-05T00:42:36.111Z,0.00
2018-07-05T00:43:36.080Z,0.00
2018-07-05T00:44:36.065Z,0.00
2018-07-05T00:45:36.037Z,0.00
2018-07-05T00:46:36.017Z,0.00
2018-07-05T00:47:35.996Z,0.00
2018-07-05T00:48:35.973Z,0.00
2018-07-05T00:49:35.948Z,0.00
2018-07-05T00:50:35.925Z,0.00
2018-07-05T00:51:35.903Z,0.00
2018-07-05T00:52:35.881Z,0.00
2018-07-05T00:53:35.857Z,0.00
2018-07-05T00:54:35.838Z,0.00
2018-07-05T00:55:35.809Z,0.00
2018-07-05T00:56:35.789Z,0.00
2018-07-05T00:57:35.763Z,0.00
2018-07-05T00:58:35.739Z,0.00
2018-07-05T00:59:35.718Z,0.00
2018-07-05T01:00:35.699Z,0.00
2018-07-05T01:01:35.674Z,0.00
2018-07-05T01:02:35.656Z,0.00
2018-07-05T01:03:35.626Z,0.00
2018-07-05T01:04:35.610Z,0.00
2018-07-05T01:05:35.583Z,0.00
2018-07-05T01:06:35.564Z,0.00
2018-07-05T01:07:35.548Z,0.00
2018-07-05T01:08:35.509Z,0.00
2018-07-05T01:09:35.497Z,0.00
2018-07-05T01:10:35.466Z,0.00
2018-07-05T01:11:35.446Z,0.00
2018-07-05T01:12:35.432Z,0.00
2018-07-05T01:13:35.411Z,0.00
2018-07-05T01:14:35.384Z,0.00
2018-07-05T01:15:35.353Z,0.00
2018-07-05T01:16:35.339Z,0.00
2018-07-05T01:17:35.313Z,0.00
2018-07-05T01:18:35.289Z,0.00
2018-07-05T01:19:35.262Z,0.00
2018-07-05T01:20:35.238Z,0.00
2018-07-05T01:21:35.221Z,0.00
2018-07-05T01:22:35.195Z,0.00
2018-07-05T01:23:35.169Z,0.00
2018-07-05T01:24:35.156Z,0.00
2018-07-05T01:25:35.135Z,0.00
2018-07-05T01:26:35.104Z,0.00
2018-07-05T01:27:35.082Z,0.00
2018-07-05T01:28:35.060Z,0.00
2018-07-05T01:29:35.041Z,0.00
2018-07-05T01:30:35.017Z,0.00
2018-07-05T01:31:34.989Z,0.00
2018-07-05T01:32:34.969Z,0.00
2018-07-05T01:33:34.939Z,0.00
2018-07-05T01:34:34.927Z,0.00
2018-07-05T01:35:34.901Z,0.00
2018-07-05T01:36:34.884Z,0.00
2018-07-05T01:37:34.852Z,0.00
2018-07-05T01:38:34.836Z,0.00
2018-07-05T01:39:34.807Z,0.00
2018-07-05T01:40:34.786Z,0.00
2018-07-05T01:41:34.762Z,0.00
2018-07-05T01:42:34.751Z,0.00
2018-07-05T01:43:34.713Z,0.00
2018-07-05T01:44:34.698Z,0.00
2018-07-05T01:45:34.666Z,0.00
2018-07-05T01:46:34.646Z,0.00
2018-07-05T01:47:34.627Z,0.00
2018-07-05T01:48:34.602Z,0.00
2018-07-05T01:49:34.586Z,0.00
2018-07-05T01:50:34.554Z,0.00
2018-07-05T01:51:34.532Z,0.00
2018-07-05T01:52:34.504Z,0.00
2018-07-05T01:53:34.485Z,0.00
2018-07-05T01:54:34.467Z,0.00
2018-07-05T01:55:34.447Z,0.00
2018-07-05T01:56:34.417Z,0.00
2018-07-05T01:57:34.394Z,0.00
2018-07-05T01:58:34.389Z,0.00
2018-07-05T01:59:34.350Z,0.00
2018-07-05T02:00:34.323Z,0.00
2018-07-05T02:01:34.306Z,0.00
2018-07-05T02:02:34.289Z,0.00
2018-07-05T02:03:34.256Z,0.00
2018-07-05T02:04:34.239Z,0.00
2018-07-05T02:05:34.209Z,0.00
2018-07-05T02:06:34.190Z,0.00
2018-07-05T02:07:34.165Z,0.00
2018-07-05T02:08:34.143Z,0.00
2018-07-05T02:09:34.122Z,0.00
2018-07-05T02:10:34.096Z,0.00
2018-07-05T02:11:34.074Z,0.00
2018-07-05T02:12:34.050Z,0.00
2018-07-05T02:13:34.031Z,0.00
2018-07-05T02:14:34.073Z,0.00
2018-07-05T02:15:33.984Z,0.00
2018-07-05T02:16:33.959Z,0.00
2018-07-05T02:17:33.943Z,0.00
2018-07-05T02:18:33.917Z,0.00
2018-07-05T02:19:33.888Z,0.00
2018-07-05T02:20:33.870Z,0.00
2018-07-05T02:21:33.841Z,0.00
2018-07-05T02:22:33.829Z,0.00
2018-07-05T02:23:33.795Z,0.00
2018-07-05T02:24:33.781Z,0.00
2018-07-05T02:25:33.758Z,0.00
2018-07-05T02:26:33.725Z,0.00
2018-07-05T02:27:33.710Z,0.00
2018-07-05T02:28:33.679Z,0.00
2018-07-05T02:29:33.656Z,0.00
2018-07-05T02:30:33.642Z,0.00
2018-07-05T02:31:33.612Z,0.00
2018-07-05T02:32:33.597Z,0.00
2018-07-05T02:33:33.564Z,0.00
2018-07-05T02:34:33.549Z,0.00
2018-07-05T02:35:33.525Z,0.00
2018-07-05T02:36:33.496Z,0.00
2018-07-05T02:37:33.480Z,0.00
2018-07-05T02:38:33.449Z,0.00
2018-07-05T02:39:33.427Z,0.00
2018-07-05T02:40:33.411Z,0.00
2018-07-05T02:41:33.378Z,0.00
2018-07-05T02:42:33.367Z,0.00
2018-07-05T02:43:33.333Z,0.00
2018-07-05T02:44:33.318Z,0.00
2018-07-05T02:45:33.294Z,0.00
2018-07-05T02:46:33.269Z,0.00
2018-07-05T02:47:33.250Z,0.00
2018-07-05T02:48:33.216Z,0.00
2018-07-05T02:49:33.203Z,0.00
2018-07-05T02:50:33.175Z,4.00
2018-07-05T02:51:33.157Z,4.00
2018-07-05T02:52:33.128Z,0.00
2018-07-05T02:53:33.103Z,0.00
2018-07-05T02:54:33.089Z,0.00
2018-07-05T02:55:33.055Z,0.00
2018-07-05T02:56:33.045Z,4.00
2018-07-05T02:57:33.037Z,4.00
2018-07-05T02:58:33.002Z,4.00
2018-07-05T02:59:32.975Z,0.00
2018-07-05T03:00:32.959Z,4.00
2018-07-05T03:01:32.922Z,4.00
2018-07-05T03:02:32.909Z,4.00
2018-07-05T03:03:32.880Z,4.00
2018-07-05T03:04:32.855Z,4.00
2018-07-05T03:05:32.835Z,8.00
2018-07-05T03:06:32.823Z,4.00
2018-07-05T03:07:32.790Z,8.00
2018-07-05T03:08:32.759Z,4.00
2018-07-05T03:09:32.741Z,8.00
2018-07-05T03:10:32.719Z,4.00
2018-07-05T03:11:32.700Z,8.00
2018-07-05T03:12:32.669Z,12.00
2018-07-05T03:13:32.754Z,12.00
2018-07-05T03:14:32.633Z,12.00
2018-07-05T03:15:32.602Z,12.00
2018-07-05T03:16:32.584Z,16.00
2018-07-05T03:17:32.561Z,16.00
2018-07-05T03:18:32.532Z,20.00
2018-07-05T03:19:32.514Z,20.00
2018-07-05T03:20:32.483Z,24.00
2018-07-05T03:21:32.461Z,24.00
2018-07-05T03:22:32.447Z,28.00
2018-07-05T03:23:32.445Z,28.00
2018-07-05T03:24:32.389Z,32.00
2018-07-05T03:25:32.375Z,36.00
2018-07-05T03:26:32.346Z,44.00
2018-07-05T03:27:32.326Z,44.00
2018-07-05T03:28:32.298Z,48.00
2018-07-05T03:29:32.287Z,52.00
2018-07-05T03:30:32.256Z,56.00
2018-07-05T03:31:32.249Z,60.00
2018-07-05T03:32:32.206Z,60.00
2018-07-05T03:33:32.186Z,64.00
2018-07-05T03:34:32.168Z,68.00
2018-07-05T03:35:32.139Z,64.00
2018-07-05T03:36:32.122Z,60.00
2018-07-05T03:37:32.097Z,56.00
2018-07-05T03:38:32.081Z,52.00
2018-07-05T03:39:32.049Z,52.00
2018-07-05T03:40:32.023Z,56.00
2018-07-05T03:41:32.001Z,60.00
2018-07-05T03:42:31.981Z,64.00
2018-07-05T03:43:31.956Z,68.00
2018-07-05T03:44:31.936Z,64.00
2018-07-05T03:45:31.907Z,68.00
2018-07-05T03:46:31.892Z,68.00
2018-07-05T03:47:31.860Z,68.00
2018-07-05T03:48:31.843Z,64.00
2018-07-05T03:49:31.821Z,64.00
2018-07-05T03:50:31.798Z,64.00
2018-07-05T03:51:31.796Z,64.00
2018-07-05T03:52:31.747Z,68.00
2018-07-05T03:53:31.726Z,76.00
2018-07-05T03:54:31.711Z,84.00
2018-07-05T03:55:31.680Z,92.00
2018-07-05T03:56:31.659Z,104.00
2018-07-05T03:57:31.635Z,116.00
2018-07-05T03:58:31.608Z,136.00
2018-07-05T03:59:31.587Z,160.00
2018-07-05T04:00:31.561Z,176.00
2018-07-05T04:01:31.548Z,196.00
2018-07-05T04:02:31.546Z,208.00
2018-07-05T04:03:31.493Z,216.00
2018-07-05T04:04:31.513Z,224.00
2018-07-05T04:05:31.453Z,228.00
2018-07-05T04:06:31.424Z,232.00
2018-07-05T04:07:31.399Z,244.00
2018-07-05T04:08:31.385Z,256.00
2018-07-05T04:09:31.359Z,268.00
2018-07-05T04:10:31.338Z,284.00
2018-07-05T04:11:31.307Z,296.00
2018-07-05T04:12:31.293Z,308.00
2018-07-05T04:13:31.263Z,320.00
2018-07-05T04:14:31.243Z,332.00
2018-07-05T04:15:31.223Z,348.00
2018-07-05T04:16:31.196Z,364.00
2018-07-05T04:17:31.170Z,384.00
2018-07-05T04:18:31.153Z,408.00
2018-07-05T04:19:31.125Z,432.00
2018-07-05T04:20:31.107Z,460.00
2018-07-05T04:21:31.079Z,488.00
2018-07-05T04:22:31.060Z,512.00
2018-07-05T04:23:31.037Z,544.00
2018-07-05T04:24:31.013Z,572.00
2018-07-05T04:25:30.987Z,596.00
2018-07-05T04:26:30.970Z,616.00
2018-07-05T04:27:30.953Z,624.00
2018-07-05T04:28:30.917Z,680.00
2018-07-05T04:29:30.891Z,700.00
2018-07-05T04:30:30.872Z,712.00
2018-07-05T04:31:30.848Z,720.00
2018-07-05T04:32:30.830Z,720.00
2018-07-05T04:33:30.806Z,728.00
2018-07-05T04:34:30.778Z,736.00
2018-07-05T04:35:30.761Z,756.00
2018-07-05T04:36:30.728Z,772.00
2018-07-05T04:37:30.708Z,788.00
2018-07-05T04:38:30.692Z,800.00
2018-07-05T04:39:30.714Z,816.00
2018-07-05T04:40:30.644Z,836.00
2018-07-05T04:41:30.618Z,856.00
2018-07-05T04:42:30.654Z,864.00
2018-07-05T04:43:30.572Z,852.00
2018-07-05T04:44:30.571Z,824.00
2018-07-05T04:45:30.528Z,800.00
2018-07-05T04:46:30.507Z,776.00
2018-07-05T04:47:30.480Z,748.00
2018-07-05T04:48:30.453Z,732.00
2018-07-05T04:49:30.434Z,724.00
2018-07-05T04:50:30.416Z,728.00
2018-07-05T04:51:30.394Z,728.00
2018-07-05T04:52:30.366Z,724.00
2018-07-05T04:53:30.368Z,720.00
2018-07-05T04:54:30.320Z,720.00
2018-07-05T04:55:30.348Z,724.00
2018-07-05T04:56:30.277Z,740.00
2018-07-05T04:57:30.254Z,772.00
2018-07-05T04:58:30.229Z,812.00
2018-07-05T04:59:30.208Z,844.00
2018-07-05T05:00:30.221Z,872.00
2018-07-05T05:01:30.155Z,908.00
2018-07-05T05:02:30.228Z,944.00
2018-07-05T05:03:30.109Z,988.00
2018-07-05T05:04:30.089Z,1028.00
2018-07-05T05:05:30.076Z,1088.00
2018-07-05T05:06:30.043Z,1152.00
2018-07-05T05:07:30.026Z,1208.00
2018-07-05T05:08:29.999Z,1236.00
2018-07-05T05:09:29.982Z,1244.00
2018-07-05T05:10:29.957Z,1240.00
2018-07-05T05:11:29.928Z,1224.00
2018-07-05T05:12:29.910Z,1208.00
2018-07-05T05:13:29.881Z,1164.00
2018-07-05T05:14:29.866Z,1124.00
2018-07-05T05:15:29.835Z,1092.00
2018-07-05T05:16:29.820Z,1060.00
2018-07-05T05:17:29.791Z,1020.00
2018-07-05T05:18:29.768Z,992.00
2018-07-05T05:19:29.750Z,996.00
2018-07-05T05:20:29.726Z,1000.00
2018-07-05T05:21:29.698Z,1008.00
2018-07-05T05:22:29.684Z,1020.00
2018-07-05T05:23:29.655Z,1028.00
2018-07-05T05:24:29.635Z,1028.00
2018-07-05T05:25:29.607Z,1024.00
2018-07-05T05:26:29.593Z,1032.00
2018-07-05T05:27:29.562Z,1044.00
2018-07-05T05:28:29.544Z,1068.00
2018-07-05T05:29:29.523Z,1108.00
2018-07-05T05:30:29.493Z,1164.00
2018-07-05T05:31:29.472Z,1240.00
2018-07-05T05:32:29.450Z,1332.00
2018-07-05T05:33:29.428Z,1428.00
2018-07-05T05:34:29.407Z,1516.00
2018-07-05T05:35:29.384Z,1576.00
2018-07-05T05:36:29.362Z,1604.00
2018-07-05T05:37:29.341Z,1636.00
2018-07-05T05:38:29.309Z,1652.00
2018-07-05T05:39:29.293Z,1636.00
2018-07-05T05:40:29.262Z,1588.00
2018-07-05T05:41:29.239Z,1528.00
2018-07-05T05:42:29.231Z,1472.00
2018-07-05T05:43:29.193Z,1428.00
2018-07-05T05:44:29.181Z,1392.00
2018-07-05T05:45:29.154Z,1348.00
2018-07-05T05:46:29.126Z,1308.00
2018-07-05T05:47:29.105Z,1268.00
2018-07-05T05:48:29.080Z,1256.00
2018-07-05T05:49:29.059Z,1268.00
2018-07-05T05:50:29.037Z,1312.00
2018-07-05T05:51:29.020Z,1364.00
2018-07-05T05:52:29.002Z,1392.00
2018-07-05T05:53:28.970Z,1408.00
2018-07-05T05:54:28.952Z,1380.00
2018-07-05T05:55:28.923Z,1288.00
2018-07-05T05:56:28.900Z,1200.00
2018-07-05T05:57:28.883Z,1132.00
2018-07-05T05:58:28.846Z,1052.00
2018-07-05T05:59:28.832Z,968.00
2018-07-05T06:00:28.808Z,868.00
2018-07-05T06:01:28.793Z,772.00
2018-07-05T06:02:28.765Z,684.00
2018-07-05T06:03:28.744Z,596.00
2018-07-05T06:04:28.714Z,504.00
2018-07-05T06:05:28.696Z,428.00
2018-07-05T06:06:28.672Z,380.00
2018-07-05T06:07:28.651Z,340.00
2018-07-05T06:08:28.629Z,312.00
2018-07-05T06:09:28.603Z,272.00
2018-07-05T06:10:28.581Z,228.00
2018-07-05T06:11:28.560Z,188.00
2018-07-05T06:12:28.534Z,160.00
2018-07-05T06:13:28.509Z,144.00
2018-07-05T06:14:28.492Z,136.00
2018-07-05T06:15:28.474Z,136.00
2018-07-05T06:16:28.442Z,148.00
2018-07-05T06:17:28.423Z,160.00
2018-07-05T06:18:28.395Z,180.00
2018-07-05T06:19:29.002Z,192.00
2018-07-05T06:20:28.345Z,196.00
2018-07-05T06:21:28.331Z,192.00
2018-07-05T06:22:28.307Z,184.00
2018-07-05T06:23:28.278Z,180.00
2018-07-05T06:24:28.263Z,184.00
2018-07-05T06:25:28.275Z,192.00
2018-07-05T06:26:28.214Z,208.00
2018-07-05T06:27:28.189Z,232.00
2018-07-05T06:28:28.167Z,256.00
2018-07-05T06:29:28.145Z,276.00
2018-07-05T06:30:28.118Z,284.00
2018-07-05T06:31:28.097Z,284.00
2018-07-05T06:32:28.071Z,284.00
2018-07-05T06:33:28.045Z,284.00
